Time;durP1;ratioP1;P1;durP2;ratioP2;P2;SDS_P1;SDS_P2;PMS_P1;PMS_P2;Temp;Humidity;BMP_temperature;BMP_pressure;BME280_temperature;BME280_humidity;BME280_pressure;Samples;Min_cycle;Max_cycle;Signal;HPM_P1;HPM_P2
2022/04/27 00:02:07;;;;;;;5.70;3.50;;;;;;;-140.79;100.00;63287.88;5024382;28;20033;-54
2022/04/27 00:04:33;;;;;;;5.78;3.20;;;;;;;-140.79;100.00;63287.88;5024290;28;20025;-54
2022/04/27 00:06:58;;;;;;;6.20;3.40;;;;;;;-140.79;100.00;63287.88;5024287;28;20021;-54
2022/04/27 00:09:24;;;;;;;6.03;3.65;;;;;;;-140.79;100.00;63287.88;5024332;28;20052;-54
2022/04/27 00:11:49;;;;;;;5.97;3.42;;;;;;;-140.79;100.00;63287.88;5023975;28;20105;-54
2022/04/27 00:14:14;;;;;;;5.43;3.50;;;;;;;-140.79;100.00;63287.88;5024108;28;20021;-53
2022/04/27 00:16:40;;;;;;;6.55;4.03;;;;;;;-140.79;100.00;63287.88;5024167;28;20080;-54
2022/04/27 00:19:05;;;;;;;5.80;3.60;;;;;;;-140.79;100.00;63287.88;5024544;28;20721;-54
2022/04/27 00:21:31;;;;;;;6.43;4.00;;;;;;;-140.79;100.00;63287.88;5024212;28;20079;-54
2022/04/27 00:23:56;;;;;;;5.95;3.60;;;;;;;-140.79;100.00;63287.88;5023338;28;20620;-55
2022/04/27 00:26:22;;;;;;;6.22;3.63;;;;;;;-140.79;100.00;63287.88;5023857;28;20042;-54
2022/04/27 00:28:47;;;;;;;5.70;4.18;;;;;;;-140.79;100.00;63287.88;5024233;28;20429;-54
2022/04/27 00:31:12;;;;;;;6.95;3.50;;;;;;;-140.79;100.00;63287.88;5023694;28;20026;-54
2022/04/27 00:33:38;;;;;;;6.47;3.80;;;;;;;-140.79;100.00;63287.88;5024228;28;20512;-54
2022/04/27 00:36:03;;;;;;;5.90;3.58;;;;;;;-140.79;100.00;63287.88;5024149;28;20451;-54
2022/04/27 00:38:29;;;;;;;7.05;3.97;;;;;;;-140.79;100.00;63287.88;5023539;28;20539;-54
2022/04/27 00:40:54;;;;;;;5.50;3.50;;;;;;;-140.79;100.00;63287.88;5023388;28;20481;-55
2022/04/27 00:43:39;;;;;;;6.78;4.25;;;;;;;-140.79;100.00;63287.88;5022504;28;20029;-54
2022/04/27 00:46:05;;;;;;;6.30;4.18;;;;;;;-140.79;100.00;63287.88;5023526;28;20036;-55
2022/04/27 00:48:30;;;;;;;6.03;3.97;;;;;;;-140.79;100.00;63287.88;5023120;28;20053;-54
2022/04/27 00:50:56;;;;;;;6.18;3.88;;;;;;;-140.79;100.00;63287.88;5023894;28;20033;-53
2022/04/27 00:53:22;;;;;;;5.57;3.90;;;;;;;-140.79;100.00;63287.88;5023419;28;20033;-54
2022/04/27 00:55:48;;;;;;;6.43;4.20;;;;;;;-140.79;100.00;63287.88;5023663;28;20033;-54
2022/04/27 00:58:13;;;;;;;6.78;3.97;;;;;;;-140.79;100.00;63287.88;5005394;28;20111;-54
2022/04/27 01:00:39;;;;;;;5.75;3.80;;;;;;;-140.79;100.00;63287.88;5005771;28;20021;-54
2022/04/27 01:03:04;;;;;;;5.93;3.80;;;;;;;-140.79;100.00;63287.88;5023810;28;20049;-55
2022/04/27 01:05:29;;;;;;;7.15;4.55;;;;;;;-140.79;100.00;63287.88;5026460;28;20513;-54
2022/04/27 01:08:00;;;;;;;6.20;3.67;;;;;;;-140.79;100.00;63287.88;5027307;28;20033;-54
2022/04/27 01:10:26;;;;;;;6.65;4.40;;;;;;;-140.79;100.00;63287.88;5010083;28;20021;-55
2022/04/27 01:12:52;;;;;;;7.20;4.43;;;;;;;-140.79;100.00;63287.88;5027463;28;20021;-53
2022/04/27 01:15:31;;;;;;;6.65;4.20;;;;;;;-140.79;100.00;63287.88;5027191;28;20049;-53
2022/04/27 01:17:57;;;;;;;6.20;4.20;;;;;;;-140.79;100.00;63287.88;5027564;28;20083;-54
2022/04/27 01:20:23;;;;;;;6.85;4.28;;;;;;;-140.79;100.00;63287.88;5027308;28;20770;-54
2022/04/27 01:22:48;;;;;;;6.82;4.47;;;;;;;-140.79;100.00;63287.88;5027378;28;20029;-54
2022/04/27 01:25:14;;;;;;;6.75;4.57;;;;;;;-140.79;100.00;63287.88;5026736;28;20038;-54
2022/04/27 01:27:42;;;;;;;7.68;4.53;;;;;;;-140.79;100.00;63287.88;5027016;28;20488;-54
2022/04/27 01:30:08;;;;;;;6.47;4.75;;;;;;;-140.79;100.00;63287.88;5025544;28;20034;-53
2022/04/27 01:32:34;;;;;;;7.28;4.53;;;;;;;-140.79;100.00;63287.88;5026544;28;20032;-53
2022/04/27 01:34:59;;;;;;;7.57;4.95;;;;;;;-140.79;100.00;63287.88;5026947;28;20064;-54
2022/04/27 01:40:08;;;;;;;7.72;4.80;;;;;;;-140.79;100.00;63287.88;5026864;28;20487;-54
2022/04/27 01:42:34;;;;;;;6.93;5.00;;;;;;;-140.79;100.00;63287.88;5026569;28;20025;-53
2022/04/27 01:45:01;;;;;;;6.38;4.38;;;;;;;-140.79;100.00;63287.88;5026545;28;20037;-54
2022/04/27 01:47:27;;;;;;;7.60;4.78;;;;;;;-140.79;100.00;63287.88;5026863;28;20044;-53
2022/04/27 01:49:52;;;;;;;7.93;4.78;;;;;;;-140.79;100.00;63287.88;5026711;28;20029;-53
2022/04/27 01:55:02;;;;;;;9.15;4.88;;;;;;;-140.79;100.00;63287.88;5026899;28;20052;-53
2022/04/27 01:57:27;;;;;;;6.68;4.47;;;;;;;-140.79;100.00;63287.88;5026930;28;20475;-53
2022/04/27 01:59:54;;;;;;;7.80;4.82;;;;;;;-140.79;100.00;63287.88;5026259;28;20041;-54
2022/04/27 02:02:20;;;;;;;7.18;4.88;;;;;;;-140.79;100.00;63287.88;5025758;28;20025;-53
2022/04/27 02:04:46;;;;;;;7.25;4.82;;;;;;;-140.79;100.00;63287.88;5008995;28;20025;-54
2022/04/27 02:07:12;;;;;;;7.15;5.15;;;;;;;-140.79;100.00;63287.88;5025812;28;20440;-53
2022/04/27 02:09:37;;;;;;;7.47;4.70;;;;;;;-140.79;100.00;63287.88;5026506;28;20033;-53
2022/04/27 02:12:06;;;;;;;9.23;5.15;;;;;;;-140.79;100.00;63287.88;5026272;28;20025;-53
2022/04/27 02:14:31;;;;;;;7.65;5.45;;;;;;;-140.79;100.00;63287.88;5025948;28;20021;-54
2022/04/27 02:16:57;;;;;;;7.40;5.03;;;;;;;-140.79;100.00;63287.88;5023952;28;20518;-54
2022/04/27 02:19:23;;;;;;;7.15;4.70;;;;;;;-140.79;100.00;63287.88;5026335;28;20413;-54
2022/04/27 02:21:48;;;;;;;8.13;5.40;;;;;;;-140.79;100.00;63287.88;5025849;28;20037;-54
2022/04/27 02:24:14;;;;;;;7.70;4.85;;;;;;;-140.79;100.00;63287.88;5025041;28;20033;-55
2022/04/27 02:26:42;;;;;;;8.18;4.70;;;;;;;-140.79;100.00;63287.88;5025182;28;20041;-53
2022/04/27 02:29:08;;;;;;;8.77;4.90;;;;;;;-140.79;100.00;63287.88;5026060;28;20030;-54
2022/04/27 02:31:34;;;;;;;8.75;5.07;;;;;;;-140.79;100.00;63287.88;5025893;28;20117;-54
2022/04/27 02:34:00;;;;;;;7.95;5.18;;;;;;;-140.79;100.00;63287.88;5026376;28;20021;-54
2022/04/27 02:36:25;;;;;;;7.45;4.88;;;;;;;-140.79;100.00;63287.88;5026336;28;20030;-54
2022/04/27 02:38:50;;;;;;;7.28;4.97;;;;;;;-140.79;100.00;63287.88;5025800;28;20025;-54
2022/04/27 02:41:16;;;;;;;7.68;5.15;;;;;;;-140.79;100.00;63287.88;5025897;28;20017;-53
2022/04/27 02:43:41;;;;;;;7.22;5.00;;;;;;;-140.79;100.00;63287.88;5024657;28;20032;-54
2022/04/27 02:46:07;;;;;;;7.93;4.90;;;;;;;-140.79;100.00;63287.88;5025837;28;20037;-56
2022/04/27 02:48:32;;;;;;;8.20;5.05;;;;;;;-140.79;100.00;63287.88;5026439;28;20033;-55
2022/04/27 02:53:58;;;;;;;7.45;4.90;;;;;;;-140.79;100.00;63287.88;4964062;28;20494;-54
2022/04/27 02:56:24;;;;;;;8.65;5.32;;;;;;;-140.79;100.00;63287.88;5012309;28;20052;-53
2022/04/27 02:58:49;;;;;;;6.95;4.80;;;;;;;-140.79;100.00;63287.88;5025490;28;20079;-54
2022/04/27 03:01:14;;;;;;;7.22;5.00;;;;;;;-140.79;100.00;63287.88;5025122;28;20044;-54
2022/04/27 03:03:40;;;;;;;6.88;4.60;;;;;;;-140.79;100.00;63287.88;5025208;28;20029;-53
2022/04/27 03:06:05;;;;;;;8.25;5.32;;;;;;;-140.79;100.00;63287.88;5025237;28;20029;-53
2022/04/27 03:08:30;;;;;;;7.43;4.97;;;;;;;-140.79;100.00;63287.88;5024871;28;20033;-53
2022/04/27 03:10:56;;;;;;;7.45;4.75;;;;;;;-140.79;100.00;63287.88;5024466;28;20421;-53
2022/04/27 03:13:21;;;;;;;7.25;4.90;;;;;;;-140.79;100.00;63287.88;5025258;28;20562;-54
2022/04/27 03:15:47;;;;;;;7.47;4.72;;;;;;;-140.79;100.00;63287.88;5025061;28;20348;-54
2022/04/27 03:18:19;;;;;;;6.60;4.53;;;;;;;-140.79;100.00;63287.88;5025056;28;20539;-53
2022/04/27 03:20:47;;;;;;;8.75;4.93;;;;;;;-140.79;100.00;63287.88;5025191;28;20044;-54
2022/04/27 03:23:13;;;;;;;7.47;4.57;;;;;;;-140.79;100.00;63287.88;5024815;28;20435;-53
2022/04/27 03:25:38;;;;;;;7.50;5.03;;;;;;;-140.79;100.00;63287.88;5024724;28;20042;-53
2022/04/27 03:28:04;;;;;;;7.63;4.63;;;;;;;-140.79;100.00;63287.88;5024811;28;20026;-52
2022/04/27 03:30:29;;;;;;;7.78;4.95;;;;;;;-140.79;100.00;63287.88;5007230;28;20120;-54
2022/04/27 03:32:55;;;;;;;9.10;5.15;;;;;;;-140.79;100.00;63287.88;5024962;28;20455;-54
2022/04/27 03:35:20;;;;;;;6.97;4.82;;;;;;;-140.79;100.00;63287.88;5024782;28;20412;-53
2022/04/27 03:37:45;;;;;;;7.10;4.65;;;;;;;-140.79;100.00;63287.88;5024249;28;20121;-53
2022/04/27 03:40:11;;;;;;;8.45;4.82;;;;;;;-140.79;100.00;63287.88;5024665;28;20030;-55
2022/04/27 03:42:37;;;;;;;7.32;4.57;;;;;;;-140.79;100.00;63287.88;5024376;28;20040;-54
2022/04/27 03:45:03;;;;;;;7.40;4.82;;;;;;;-140.79;100.00;63287.88;5024692;28;20029;-55
2022/04/27 03:47:28;;;;;;;6.63;4.25;;;;;;;-140.79;100.00;63287.88;5023070;28;20470;-54
2022/04/27 03:49:55;;;;;;;7.25;4.53;;;;;;;-140.79;100.00;63287.88;5024871;28;20022;-53
2022/04/27 03:52:20;;;;;;;9.98;4.75;;;;;;;-140.79;100.00;63287.88;5023998;28;20033;-54
2022/04/27 03:54:46;;;;;;;7.28;4.68;;;;;;;-140.79;100.00;63287.88;5023602;28;20186;-53
2022/04/27 03:57:11;;;;;;;7.15;4.53;;;;;;;-140.79;100.00;63287.88;5023063;28;20026;-56
2022/04/27 03:59:37;;;;;;;6.32;4.25;;;;;;;-140.79;100.00;63287.88;5023560;28;20128;-53
2022/04/27 04:02:02;;;;;;;7.22;5.03;;;;;;;-140.79;100.00;63287.88;5023027;28;20021;-53
2022/04/27 04:04:28;;;;;;;6.97;4.63;;;;;;;-140.79;100.00;63287.88;5023233;28;20022;-52
2022/04/27 04:06:53;;;;;;;6.68;4.15;;;;;;;-140.79;100.00;63287.88;5023339;28;20040;-53
2022/04/27 04:09:19;;;;;;;6.55;4.10;;;;;;;-140.79;100.00;63287.88;5022820;28;20412;-54
2022/04/27 04:11:44;;;;;;;5.85;3.95;;;;;;;-140.79;100.00;63287.88;5022896;28;20208;-52
2022/04/27 04:14:10;;;;;;;5.80;3.75;;;;;;;-140.79;100.00;63287.88;5023658;28;20496;-54
2022/04/27 04:16:35;;;;;;;6.57;4.50;;;;;;;-140.79;100.00;63287.88;5024314;28;20045;-54
2022/04/27 04:19:00;;;;;;;6.13;4.00;;;;;;;-140.79;100.00;63287.88;5024056;28;20037;-53
2022/04/27 04:21:26;;;;;;;6.00;3.83;;;;;;;-140.79;100.00;63287.88;5022849;28;20485;-58
2022/04/27 04:23:51;;;;;;;6.72;4.20;;;;;;;-140.79;100.00;63287.88;5027014;28;20515;-54
2022/04/27 04:29:01;;;;;;;6.35;3.92;;;;;;;-140.79;100.00;63287.88;5028005;28;20573;-53
2022/04/27 04:31:26;;;;;;;4.88;3.53;;;;;;;-140.79;100.00;63287.88;5022691;28;20030;-53
2022/04/27 04:33:52;;;;;;;5.88;3.92;;;;;;;-140.79;100.00;63287.88;5022287;28;20029;-54
2022/04/27 04:36:17;;;;;;;6.53;3.58;;;;;;;-140.79;100.00;63287.88;5023192;28;20022;-53
2022/04/27 04:38:43;;;;;;;6.05;3.70;;;;;;;-140.79;100.00;63287.88;5021031;28;20040;-52
2022/04/27 04:41:08;;;;;;;5.85;3.70;;;;;;;-140.79;100.00;63287.88;5021682;28;20026;-53
2022/04/27 04:43:33;;;;;;;5.55;3.58;;;;;;;-140.79;100.00;63287.88;5022363;28;20033;-52
2022/04/27 04:45:59;;;;;;;5.20;3.65;;;;;;;-140.79;100.00;63287.88;5020607;28;20036;-53
2022/04/27 04:48:25;;;;;;;6.80;3.60;;;;;;;-140.79;100.00;63287.88;5021907;28;20021;-53
2022/04/27 04:50:50;;;;;;;5.50;3.25;;;;;;;-140.79;100.00;63287.88;5021271;28;20444;-52
2022/04/27 04:53:18;;;;;;;5.75;3.42;;;;;;;-140.79;100.00;63287.88;5021183;28;20041;-52
2022/04/27 04:55:44;;;;;;;6.50;3.92;;;;;;;-140.79;100.00;63287.88;5025587;28;20099;-52
2022/04/27 04:58:10;;;;;;;5.68;3.60;;;;;;;-140.79;100.00;63287.88;5023438;28;20504;-54
2022/04/27 05:00:37;;;;;;;5.00;3.20;;;;;;;-140.79;100.00;63287.88;5023498;28;20018;-54
2022/04/27 05:03:02;;;;;;;6.18;3.72;;;;;;;-140.79;100.00;63287.88;5023740;28;20051;-53
2022/04/27 05:05:28;;;;;;;4.57;3.30;;;;;;;-140.79;100.00;63287.88;5022853;28;20038;-53
2022/04/27 05:07:53;;;;;;;5.70;3.45;;;;;;;-140.79;100.00;63287.88;5022286;28;20152;-54
2022/04/27 05:10:19;;;;;;;5.40;3.55;;;;;;;-140.79;100.00;63287.88;5022456;28;20045;-55
2022/04/27 05:12:44;;;;;;;4.35;3.13;;;;;;;-140.79;100.00;63287.88;5022029;28;20424;-53
2022/04/27 05:15:10;;;;;;;5.05;3.22;;;;;;;-140.79;100.00;63287.88;5022994;28;20511;-54
2022/04/27 05:17:36;;;;;;;5.90;3.30;;;;;;;-140.79;100.00;63287.88;5022747;28;20041;-54
2022/04/27 05:20:01;;;;;;;5.47;2.97;;;;;;;-140.79;100.00;63287.88;5022848;28;20056;-53
2022/04/27 05:22:32;;;;;;;4.60;3.08;;;;;;;-140.79;100.00;63287.88;5022914;28;20520;-53
2022/04/27 05:25:01;;;;;;;5.43;3.53;;;;;;;-140.79;100.00;63287.88;5004652;28;20041;-52
2022/04/27 05:27:26;;;;;;;5.38;3.17;;;;;;;-140.79;100.00;63287.88;5023436;28;20036;-53
2022/04/27 05:32:45;;;;;;;4.25;2.92;;;;;;;-140.79;100.00;63287.88;5022614;28;20164;-57
2022/04/27 05:35:11;;;;;;;4.70;3.08;;;;;;;-140.79;100.00;63287.88;5004047;28;20030;-54
2022/04/27 05:37:37;;;;;;;5.43;3.13;;;;;;;-140.79;100.00;63287.88;5022463;28;20025;-55
2022/04/27 05:40:03;;;;;;;4.05;2.58;;;;;;;-140.79;100.00;63287.88;5023080;28;20082;-54
2022/04/27 05:42:30;;;;;;;5.82;2.97;;;;;;;-140.79;100.00;63287.88;5023077;28;20029;-55
2022/04/27 05:44:55;;;;;;;4.90;2.88;;;;;;;-140.79;100.00;63287.88;5021883;28;20128;-54
2022/04/27 05:47:23;;;;;;;5.97;2.72;;;;;;;-140.79;100.00;63287.88;5022846;28;20009;-54
2022/04/27 05:49:52;;;;;;;5.22;3.20;;;;;;;-140.79;100.00;63287.88;5022547;28;20029;-53
2022/04/27 05:52:18;;;;;;;7.07;2.88;;;;;;;-140.79;100.00;63287.88;5023606;28;20040;-53
2022/04/27 05:54:44;;;;;;;6.78;3.13;;;;;;;-140.79;100.00;63287.88;5023111;28;20100;-54
2022/04/27 05:57:09;;;;;;;7.90;3.15;;;;;;;-140.79;100.00;63287.88;5029120;28;20026;-54
2022/04/27 05:59:35;;;;;;;6.18;2.80;;;;;;;-140.79;100.00;63287.88;5023070;28;20021;-54
2022/04/27 06:02:00;;;;;;;5.53;2.85;;;;;;;-140.79;100.00;63287.88;5025508;28;20076;-54
2022/04/27 06:04:26;;;;;;;4.68;2.70;;;;;;;-140.79;100.00;63287.88;5023395;28;20025;-54
2022/04/27 06:06:53;;;;;;;4.57;2.70;;;;;;;-140.79;100.00;63287.88;5023517;28;20025;-56
2022/04/27 06:09:18;;;;;;;5.28;2.70;;;;;;;-140.79;100.00;63287.88;5027552;28;20078;-53
2022/04/27 06:11:43;;;;;;;5.40;2.65;;;;;;;-140.79;100.00;63287.88;5026328;28;20018;-55
2022/04/27 06:14:09;;;;;;;4.28;2.55;;;;;;;-140.79;100.00;63287.88;5025390;28;20033;-54
2022/04/27 06:16:35;;;;;;;4.07;2.70;;;;;;;-140.79;100.00;63287.88;5024452;28;20018;-54
2022/04/27 06:19:01;;;;;;;6.47;2.50;;;;;;;-140.79;100.00;63287.88;5023813;28;20076;-55
2022/04/27 06:21:31;;;;;;;5.22;2.53;;;;;;;-140.79;100.00;63287.88;5026147;28;20025;-55
2022/04/27 06:23:56;;;;;;;4.18;2.70;;;;;;;-140.79;100.00;63287.88;5023805;28;20095;-54
2022/04/27 06:26:22;;;;;;;5.88;3.08;;;;;;;-140.79;100.00;63287.88;5025249;28;20049;-56
2022/04/27 06:28:47;;;;;;;6.80;2.75;;;;;;;-140.79;100.00;63287.88;5026485;28;20488;-55
2022/04/27 06:31:12;;;;;;;4.80;2.55;;;;;;;-140.79;100.00;63287.88;5026150;28;20025;-54
2022/04/27 06:33:38;;;;;;;6.97;2.70;;;;;;;-140.79;100.00;63287.88;5026147;28;20033;-54
2022/04/27 06:36:04;;;;;;;5.53;2.47;;;;;;;-140.79;100.00;63287.88;5026212;28;20033;-54
2022/04/27 06:38:29;;;;;;;4.15;2.40;;;;;;;-140.79;100.00;63287.88;5024729;28;20037;-54
2022/04/27 06:40:55;;;;;;;5.88;3.00;;;;;;;-140.79;100.00;63287.88;5024667;28;20030;-55
2022/04/27 06:43:20;;;;;;;5.75;2.40;;;;;;;-140.79;100.00;63287.88;5025083;28;20706;-53
2022/04/27 06:45:46;;;;;;;6.32;2.80;;;;;;;-140.79;100.00;63287.88;5023642;28;20396;-52
2022/04/27 06:48:11;;;;;;;8.82;4.38;;;;;;;-140.79;100.00;63287.88;5023360;28;20032;-54
2022/04/27 06:50:37;;;;;;;7.43;4.75;;;;;;;-140.79;100.00;63287.88;5024250;28;20504;-54
2022/04/27 06:53:04;;;;;;;8.00;4.70;;;;;;;-140.79;100.00;63287.88;5025754;28;20120;-52
2022/04/27 06:55:29;;;;;;;8.00;4.63;;;;;;;-140.79;100.00;63287.88;5027015;28;20527;-54
2022/04/27 06:57:55;;;;;;;9.95;5.00;;;;;;;-140.79;100.00;63287.88;5024588;28;20025;-53
2022/04/27 07:00:20;;;;;;;8.93;4.00;;;;;;;-140.79;100.00;63287.88;5024867;28;20493;-53
2022/04/27 07:02:46;;;;;;;7.35;3.20;;;;;;;-140.79;100.00;63287.88;5024667;28;20507;-54
2022/04/27 07:05:17;;;;;;;6.30;3.20;;;;;;;-140.79;100.00;63287.88;5025455;28;20029;-54
2022/04/27 07:07:47;;;;;;;6.85;3.08;;;;;;;-140.79;100.00;63287.88;5008237;28;20048;-53
2022/04/27 07:10:13;;;;;;;8.77;3.75;;;;;;;-140.79;100.00;63287.88;5025163;28;20026;-55
2022/04/27 07:12:38;;;;;;;6.85;3.15;;;;;;;-140.79;100.00;63287.88;5025496;28;20114;-54
2022/04/27 07:15:04;;;;;;;6.43;3.17;;;;;;;-140.79;100.00;63287.88;5007564;28;20088;-54
2022/04/27 07:17:30;;;;;;;6.60;2.95;;;;;;;-140.79;100.00;63287.88;5024307;28;20049;-55
2022/04/27 07:19:56;;;;;;;6.90;3.15;;;;;;;-140.79;100.00;63287.88;5025094;28;20022;-55
2022/04/27 07:22:22;;;;;;;5.32;2.83;;;;;;;-140.79;100.00;63287.88;5024959;28;20381;-56
2022/04/27 07:24:49;;;;;;;7.22;3.47;;;;;;;-140.79;100.00;63287.88;5024487;28;20520;-55
2022/04/27 07:27:14;;;;;;;4.78;2.58;;;;;;;-140.79;100.00;63287.88;5024444;28;20032;-56
2022/04/27 07:29:40;;;;;;;5.20;3.10;;;;;;;-140.79;100.00;63287.88;5024751;28;20022;-55
2022/04/27 07:32:05;;;;;;;6.35;2.70;;;;;;;-140.79;100.00;63287.88;5024901;28;20459;-55
2022/04/27 07:34:31;;;;;;;5.35;2.67;;;;;;;-140.79;100.00;63287.88;5023831;28;20041;-55
2022/04/27 07:36:58;;;;;;;5.40;2.63;;;;;;;-140.79;100.00;63287.88;5024630;28;20091;-54
2022/04/27 07:39:26;;;;;;;5.72;2.70;;;;;;;-140.79;100.00;63287.88;5026224;28;20492;-55
2022/04/27 07:41:52;;;;;;;6.05;2.60;;;;;;;-140.79;100.00;63287.88;5023608;28;20033;-53
2022/04/27 07:44:17;;;;;;;4.35;2.30;;;;;;;-140.79;100.00;63287.88;5024325;28;20025;-54
2022/04/27 07:46:47;;;;;;;7.28;2.72;;;;;;;-140.79;100.00;63287.88;5023709;28;20085;-54
2022/04/27 07:49:14;;;;;;;4.80;2.50;;;;;;;-140.79;100.00;63287.88;5024383;28;20061;-54
2022/04/27 07:51:40;;;;;;;3.42;2.20;;;;;;;-140.79;100.00;63287.88;5024401;28;20025;-54
2022/04/27 07:54:05;;;;;;;4.65;2.47;;;;;;;-140.79;100.00;63287.88;5024650;28;20029;-55
2022/04/27 07:56:31;;;;;;;6.03;2.53;;;;;;;-140.79;100.00;63287.88;5029883;28;20669;-55
2022/04/27 07:58:56;;;;;;;5.15;2.60;;;;;;;-140.79;100.00;63287.88;5023911;28;20123;-54
2022/04/27 08:01:22;;;;;;;6.15;2.72;;;;;;;-140.79;100.00;63287.88;5024207;28;20640;-55
2022/04/27 08:03:47;;;;;;;4.95;2.70;;;;;;;-140.79;100.00;63287.88;5024054;28;20034;-55
2022/04/27 08:06:12;;;;;;;7.57;3.10;;;;;;;-140.79;100.00;63287.88;5024498;28;20022;-56
2022/04/27 08:08:38;;;;;;;5.10;2.63;;;;;;;-140.79;100.00;63287.88;5024344;28;20420;-55
2022/04/27 08:11:04;;;;;;;4.03;2.65;;;;;;;-140.79;100.00;63287.88;5023891;28;20061;-56
2022/04/27 08:13:29;;;;;;;5.00;2.58;;;;;;;-140.79;100.00;63287.88;5023743;28;20449;-54
2022/04/27 08:15:55;;;;;;;5.18;2.85;;;;;;;-140.79;100.00;63287.88;5023852;28;20029;-55
2022/04/27 08:18:20;;;;;;;6.35;2.83;;;;;;;-140.79;100.00;63287.88;5024015;28;20029;-55
2022/04/27 08:23:34;;;;;;;6.30;2.80;;;;;;;-140.79;100.00;63287.88;5023814;28;20040;-55
2022/04/27 08:26:01;;;;;;;4.43;2.50;;;;;;;-140.79;100.00;63287.88;5023439;28;20049;-52
2022/04/27 08:28:27;;;;;;;4.38;2.72;;;;;;;-140.79;100.00;63287.88;5023211;28;20726;-54
2022/04/27 08:30:52;;;;;;;4.93;2.88;;;;;;;-140.79;100.00;63287.88;5023554;28;20025;-54
2022/04/27 08:33:36;;;;;;;4.65;3.25;;;;;;;-140.79;100.00;63287.88;5022761;28;20056;-54
2022/04/27 08:36:03;;;;;;;5.00;2.67;;;;;;;-140.79;100.00;63287.88;5023556;28;20496;-55
2022/04/27 08:38:28;;;;;;;5.07;2.78;;;;;;;-140.79;100.00;63287.88;5023420;28;20721;-55
2022/04/27 08:40:54;;;;;;;4.07;2.80;;;;;;;-140.79;100.00;63287.88;5023354;28;20022;-55
2022/04/27 08:43:20;;;;;;;4.22;2.50;;;;;;;-140.79;100.00;63287.88;5023552;28;20029;-53
2022/04/27 08:45:45;;;;;;;4.47;2.92;;;;;;;-140.79;100.00;63287.88;5005646;28;20029;-54
2022/04/27 08:48:12;;;;;;;5.47;2.88;;;;;;;-140.79;100.00;63287.88;5023503;28;20036;-54
2022/04/27 08:50:38;;;;;;;5.30;2.92;;;;;;;-140.79;100.00;63287.88;5023631;28;20033;-54
2022/04/27 08:53:03;;;;;;;4.82;2.78;;;;;;;-140.79;100.00;63287.88;5022235;28;20060;-55
2022/04/27 08:55:29;;;;;;;4.13;2.85;;;;;;;-140.79;100.00;63287.88;5023209;28;20061;-54
2022/04/27 08:58:07;;;;;;;4.70;2.85;;;;;;;-140.79;100.00;63287.88;5023624;28;20105;-54
2022/04/27 09:00:33;;;;;;;4.78;2.83;;;;;;;-140.79;100.00;63287.88;5009410;28;20042;-54
2022/04/27 09:03:28;;;;;;;5.82;2.55;;;;;;;-140.79;100.00;63287.88;5022679;28;20037;-55
2022/04/27 09:05:58;;;;;;;3.97;2.80;;;;;;;-140.79;100.00;63287.88;5019542;28;20038;-54
2022/04/27 09:08:24;;;;;;;4.80;2.88;;;;;;;-140.79;100.00;63287.88;5023172;28;20053;-56
2022/04/27 09:10:50;;;;;;;4.13;2.53;;;;;;;-140.79;100.00;63287.88;5023408;28;20041;-55
2022/04/27 09:13:15;;;;;;;4.82;2.50;;;;;;;-140.79;100.00;63287.88;5005647;28;20055;-54
2022/04/27 09:15:41;;;;;;;5.68;2.58;;;;;;;-140.79;100.00;63287.88;5022781;28;20088;-55
2022/04/27 09:21:00;;;;;;;5.32;2.75;;;;;;;-140.79;100.00;63287.88;5023437;28;20419;-59
2022/04/27 09:23:36;;;;;;;4.68;2.72;;;;;;;-140.79;100.00;63287.88;5005367;28;20030;-55
2022/04/27 09:26:17;;;;;;;4.18;2.42;;;;;;;-140.79;100.00;63287.88;5024815;28;20634;-56
2022/04/27 09:28:46;;;;;;;5.45;2.65;;;;;;;-140.79;100.00;63287.88;5026985;28;20148;-56
2022/04/27 09:31:13;;;;;;;4.78;2.50;;;;;;;-140.79;100.00;63287.88;5026834;28;20415;-56
2022/04/27 09:33:39;;;;;;;3.97;2.50;;;;;;;-140.79;100.00;63287.88;5009278;28;20056;-55
2022/04/27 09:36:23;;;;;;;12.43;2.92;;;;;;;-140.79;100.00;63287.88;5008807;28;20033;-55
2022/04/27 09:38:49;;;;;;;6.68;2.88;;;;;;;-140.79;100.00;63287.88;5026541;28;20175;-55
2022/04/27 09:41:14;;;;;;;6.18;2.92;;;;;;;-140.79;100.00;63287.88;5026634;28;20045;-56
2022/04/27 09:43:47;;;;;;;4.68;2.30;;;;;;;-140.79;100.00;63287.88;5009200;28;20030;-56
2022/04/27 09:46:25;;;;;;;4.68;2.72;;;;;;;-140.79;100.00;63287.88;5026426;28;20025;-55
2022/04/27 09:49:15;;;;;;;5.35;2.70;;;;;;;-140.79;100.00;63287.88;5026460;28;20412;-56
2022/04/27 09:51:47;;;;;;;6.43;2.78;;;;;;;-140.79;100.00;63287.88;5026269;28;20025;-54
2022/04/27 09:54:20;;;;;;;5.63;2.83;;;;;;;-140.79;100.00;63287.88;5026555;28;20038;-55
2022/04/27 09:56:55;;;;;;;3.60;2.50;;;;;;;-140.79;100.00;63287.88;5026087;28;20021;-56
2022/04/27 09:59:30;;;;;;;5.00;2.67;;;;;;;-140.79;100.00;63287.88;5026045;28;20029;-54
2022/04/27 10:02:17;;;;;;;4.28;2.60;;;;;;;-140.79;100.00;63287.88;5026239;28;20485;-55
2022/04/27 10:04:44;;;;;;;3.33;2.30;;;;;;;-140.79;100.00;63287.88;5011744;28;20037;-55
2022/04/27 10:07:13;;;;;;;4.22;2.30;;;;;;;-140.79;100.00;63287.88;5008467;28;20060;-54
2022/04/27 10:09:38;;;;;;;6.57;2.75;;;;;;;-140.79;100.00;63287.88;5026342;28;20455;-55
2022/04/27 10:12:06;;;;;;;5.80;2.80;;;;;;;-140.79;100.00;63287.88;5024042;28;20029;-54
2022/04/27 10:14:32;;;;;;;7.93;3.05;;;;;;;-140.79;100.00;63287.88;5025620;28;20386;-55
2022/04/27 10:16:57;;;;;;;4.97;2.47;;;;;;;-140.79;100.00;63287.88;5025703;28;20021;-55
2022/04/27 10:19:23;;;;;;;8.65;3.30;;;;;;;-140.79;100.00;63287.88;5008220;28;20029;-55
2022/04/27 10:21:59;;;;;;;10.60;3.70;;;;;;;-140.79;100.00;63287.88;5025483;28;20034;-54
2022/04/27 10:24:33;;;;;;;9.05;3.47;;;;;;;-140.79;100.00;63287.88;5025589;28;20516;-55
2022/04/27 10:27:41;;;;;;;10.02;4.22;;;;;;;-140.79;100.00;63287.88;5025048;28;20064;-57
2022/04/27 10:30:08;;;;;;;4.97;2.72;;;;;;;-140.79;100.00;63287.88;5017572;28;20706;-53
2022/04/27 10:32:51;;;;;;;6.82;3.30;;;;;;;-140.79;100.00;63287.88;5023994;28;20515;-56
2022/04/27 10:35:30;;;;;;;5.72;3.00;;;;;;;-140.79;100.00;63287.88;5025452;28;20029;-53
2022/04/27 10:38:02;;;;;;;8.02;3.03;;;;;;;-140.79;100.00;63287.88;5024448;28;20488;-54
2022/04/27 10:40:31;;;;;;;7.63;2.95;;;;;;;-140.79;100.00;63287.88;5025436;28;20033;-52
2022/04/27 10:43:12;;;;;;;7.78;2.70;;;;;;;-140.79;100.00;63287.88;5024853;28;20080;-55
2022/04/27 10:45:39;;;;;;;8.48;3.80;;;;;;;-140.79;100.00;63287.88;5024485;28;20163;-54
2022/04/27 10:48:06;;;;;;;7.25;3.72;;;;;;;-140.79;100.00;63287.88;5025229;28;20713;-54
2022/04/27 10:50:33;;;;;;;9.00;3.67;;;;;;;-140.79;100.00;63287.88;5025229;28;20044;-54
2022/04/27 10:53:14;;;;;;;6.65;3.15;;;;;;;-140.79;100.00;63287.88;5024887;28;20013;-53
2022/04/27 10:55:40;;;;;;;6.45;2.55;;;;;;;-140.79;100.00;63287.88;5025090;28;20033;-54
2022/04/27 10:58:13;;;;;;;6.15;2.70;;;;;;;-140.79;100.00;63287.88;5024938;28;20485;-54
2022/04/27 11:01:10;;;;;;;9.63;2.88;;;;;;;-140.79;100.00;63287.88;5025471;28;20033;-54
2022/04/27 11:03:36;;;;;;;6.07;2.58;;;;;;;-140.79;100.00;63287.88;5012751;28;20041;-55
2022/04/27 11:06:03;;;;;;;6.13;2.33;;;;;;;-140.79;100.00;63287.88;5024068;28;20717;-55
2022/04/27 11:09:10;;;;;;;8.88;2.70;;;;;;;-140.79;100.00;63287.88;5024882;28;20029;-55
2022/04/27 11:11:56;;;;;;;7.15;2.63;;;;;;;-140.79;100.00;63287.88;5016685;28;20041;-54
2022/04/27 11:14:28;;;;;;;7.55;3.30;;;;;;;-140.79;100.00;63287.88;5024664;28;20025;-56
2022/04/27 11:16:54;;;;;;;7.55;2.58;;;;;;;-140.79;100.00;63287.88;5023802;28;20036;-53
2022/04/27 11:19:19;;;;;;;9.63;2.45;;;;;;;-140.79;100.00;63287.88;5025081;28;20026;-55
2022/04/27 11:21:48;;;;;;;8.32;2.92;;;;;;;-140.79;100.00;63287.88;5023486;28;20037;-54
2022/04/27 11:24:15;;;;;;;10.75;2.70;;;;;;;-140.79;100.00;63287.88;5024543;28;20496;-55
2022/04/27 11:26:44;;;;;;;6.88;2.03;;;;;;;-140.79;100.00;63287.88;5024338;28;20479;-53
2022/04/27 11:29:14;;;;;;;9.23;2.60;;;;;;;-140.79;100.00;63287.88;5024727;28;20436;-54
2022/04/27 11:31:40;;;;;;;3.80;1.80;;;;;;;-140.79;100.00;63287.88;5024375;28;20032;-55